createdAt,value
2019-01-28T00:00:09.252Z,48.17
2019-01-28T00:02:39.712Z,42.70
2019-01-28T00:05:10.159Z,45.53
2019-01-28T00:07:40.572Z,47.87
2019-01-28T00:10:11.023Z,51.23
2019-01-28T00:12:41.471Z,49.63
2019-01-28T00:15:11.935Z,50.87
2019-01-28T00:17:42.363Z,49.73
2019-01-28T00:20:12.840Z,46.70
2019-01-28T00:22:43.278Z,50.80
2019-01-28T00:25:13.740Z,47.53
2019-01-28T00:27:44.188Z,44.10
2019-01-28T00:30:14.633Z,51.57
2019-01-28T00:32:45.065Z,52.93
2019-01-28T00:35:15.514Z,120.10
2019-01-28T00:37:45.990Z,97.57
2019-01-28T00:40:16.430Z,70.27
2019-01-28T00:42:46.865Z,69.20
2019-01-28T00:45:17.304Z,89.83
2019-01-28T00:47:47.741Z,87.87
2019-01-28T00:50:18.188Z,81.27
2019-01-28T00:52:48.655Z,59.67
2019-01-28T00:55:19.105Z,68.47
2019-01-28T00:57:49.560Z,63.23
2019-01-28T01:00:21.191Z,53.53
2019-01-28T01:02:51.682Z,50.77
2019-01-28T01:05:22.061Z,45.73
2019-01-28T01:07:52.443Z,46.73
2019-01-28T01:10:22.817Z,44.67
2019-01-28T01:12:53.252Z,44.60
2019-01-28T01:15:23.643Z,45.17
2019-01-28T01:17:54.083Z,46.17
2019-01-28T01:20:24.454Z,43.43
2019-01-28T01:22:54.912Z,46.60
2019-01-28T01:25:25.365Z,42.07
2019-01-28T01:27:55.803Z,46.20
2019-01-28T01:30:26.262Z,46.13
2019-01-28T01:32:56.658Z,47.07
2019-01-28T01:35:27.289Z,44.00
2019-01-28T01:37:57.735Z,38.13
2019-01-28T01:40:28.180Z,39.30
2019-01-28T01:42:59.601Z,40.10
2019-01-28T01:45:30.008Z,40.23
2019-01-28T01:48:00.362Z,36.47
2019-01-28T01:50:32.007Z,36.70
2019-01-28T01:53:02.466Z,36.83
2019-01-28T01:55:32.877Z,38.00
2019-01-28T01:58:03.219Z,35.63
2019-01-28T02:00:33.583Z,40.90
2019-01-28T02:03:04.019Z,39.27
2019-01-28T02:05:34.445Z,39.90
2019-01-28T02:08:04.861Z,42.13
2019-01-28T02:10:35.247Z,42.67
2019-01-28T02:13:05.698Z,38.87
2019-01-28T02:15:36.132Z,38.27
2019-01-28T02:18:06.552Z,39.43
2019-01-28T02:20:36.978Z,37.97
2019-01-28T02:23:07.416Z,37.23
2019-01-28T02:25:37.839Z,42.10
2019-01-28T02:28:08.274Z,39.57
2019-01-28T02:30:38.697Z,44.70
2019-01-28T02:33:09.131Z,43.87
2019-01-28T02:35:39.627Z,38.47
2019-01-28T02:38:10.063Z,40.73
2019-01-28T02:40:40.496Z,37.17
2019-01-28T02:43:10.922Z,38.60
2019-01-28T02:45:41.359Z,39.30
2019-01-28T02:48:11.787Z,42.07
2019-01-28T02:50:42.227Z,40.17
2019-01-28T02:53:12.648Z,40.10
2019-01-28T02:55:43.209Z,41.50
2019-01-28T02:58:13.622Z,41.90
2019-01-28T03:00:44.056Z,46.73
2019-01-28T03:03:14.668Z,41.30
2019-01-28T03:05:45.122Z,42.20
2019-01-28T03:08:15.573Z,45.97
2019-01-28T03:10:45.990Z,44.40
2019-01-28T03:13:16.387Z,45.43
2019-01-28T03:15:46.819Z,47.53
2019-01-28T03:18:17.582Z,48.57
2019-01-28T03:20:48.008Z,51.90
2019-01-28T03:23:19.587Z,48.63
2019-01-28T03:25:50.016Z,49.73
2019-01-28T03:28:20.455Z,50.40
2019-01-28T03:30:50.874Z,44.40
2019-01-28T03:33:21.311Z,41.47
2019-01-28T03:35:51.828Z,42.00
2019-01-28T03:38:22.274Z,43.17
2019-01-28T03:40:52.711Z,49.27
2019-01-28T03:43:23.151Z,57.30
2019-01-28T03:45:53.587Z,52.30
2019-01-28T03:48:23.989Z,45.40
2019-01-28T03:50:54.415Z,42.53
2019-01-28T03:53:25.037Z,41.37
2019-01-28T03:55:55.479Z,43.20
2019-01-28T03:58:25.905Z,41.90
2019-01-28T04:00:56.394Z,40.33
2019-01-28T04:03:26.806Z,38.73
2019-01-28T04:05:57.251Z,42.07
2019-01-28T04:08:27.672Z,37.77
2019-01-28T04:10:58.210Z,38.83
2019-01-28T04:13:28.622Z,35.60
2019-01-28T04:15:59.054Z,34.93
2019-01-28T04:18:29.518Z,40.37
2019-01-28T04:20:59.916Z,38.37
2019-01-28T04:23:30.345Z,40.03
2019-01-28T04:26:00.799Z,44.20
2019-01-28T04:28:32.271Z,47.73
2019-01-28T04:31:02.816Z,43.63
2019-01-28T04:33:33.240Z,42.87
2019-01-28T04:36:03.670Z,43.63
2019-01-28T04:38:34.100Z,42.87
2019-01-28T04:41:04.542Z,45.57
2019-01-28T04:43:34.998Z,40.80
2019-01-28T04:46:05.433Z,41.00
2019-01-28T04:48:35.881Z,44.57
2019-01-28T04:51:06.349Z,62.40
2019-01-28T04:53:36.726Z,65.53
2019-01-28T04:56:07.159Z,63.60
2019-01-28T04:58:37.572Z,56.97
2019-01-28T05:01:08.017Z,57.20
2019-01-28T05:03:38.455Z,49.83
2019-01-28T05:06:10.695Z,49.50
2019-01-28T05:08:41.205Z,59.63
2019-01-28T05:11:11.672Z,53.97
2019-01-28T05:13:42.136Z,67.87
2019-01-28T05:16:12.564Z,49.20
2019-01-28T05:18:43.048Z,45.00
2019-01-28T05:21:13.495Z,41.50
2019-01-28T05:23:43.931Z,44.53
2019-01-28T05:26:14.368Z,49.33
2019-01-28T05:28:44.844Z,42.90
2019-01-28T05:31:15.300Z,43.33
2019-01-28T05:33:45.657Z,40.23
2019-01-28T05:36:16.123Z,46.47
2019-01-28T05:38:46.577Z,45.63
2019-01-28T05:41:17.040Z,44.80
2019-01-28T05:43:47.463Z,41.37
2019-01-28T05:46:17.939Z,46.00
2019-01-28T05:48:48.376Z,46.53
2019-01-28T05:51:19.814Z,46.97
2019-01-28T05:53:50.258Z,57.67
2019-01-28T05:56:20.719Z,56.33
2019-01-28T05:58:51.087Z,63.87
2019-01-28T06:01:21.586Z,73.07
2019-01-28T06:03:52.041Z,64.77
2019-01-28T06:06:22.488Z,72.70
2019-01-28T06:08:52.971Z,56.27
2019-01-28T06:11:23.412Z,53.73
2019-01-28T06:13:53.865Z,64.47
2019-01-28T06:16:24.310Z,57.10
2019-01-28T06:18:54.805Z,41.40
2019-01-28T06:21:25.226Z,41.23
2019-01-28T06:23:55.670Z,39.73
2019-01-28T06:26:26.095Z,72.40
2019-01-28T06:28:56.655Z,72.93
2019-01-28T06:31:27.112Z,119.03
2019-01-28T06:33:57.548Z,74.70
2019-01-28T06:36:27.987Z,59.87
2019-01-28T06:38:58.564Z,78.53
2019-01-28T06:41:28.985Z,57.23
2019-01-28T06:43:59.437Z,52.43
2019-01-28T06:46:29.883Z,56.23
2019-01-28T06:49:00.359Z,56.70
2019-01-28T06:51:30.811Z,56.07
2019-01-28T06:54:01.235Z,48.33
2019-01-28T06:56:31.700Z,52.53
2019-01-28T06:59:02.112Z,50.37
2019-01-28T07:01:33.558Z,69.87
2019-01-28T07:04:04.059Z,62.13
2019-01-28T07:06:34.502Z,69.60
2019-01-28T07:09:07.792Z,56.67
2019-01-28T07:11:38.225Z,50.97
2019-01-28T07:14:08.678Z,56.33
2019-01-28T07:16:39.139Z,54.90
2019-01-28T07:19:09.545Z,56.60
2019-01-28T07:21:39.984Z,56.33
2019-01-28T07:24:10.707Z,71.93
2019-01-28T07:26:41.146Z,70.87
2019-01-28T07:29:11.648Z,103.33
2019-01-28T07:31:42.109Z,90.27
2019-01-28T07:34:12.569Z,119.30
2019-01-28T07:36:43.003Z,101.67
2019-01-28T07:39:13.449Z,91.27
2019-01-28T07:41:43.890Z,79.83
2019-01-28T07:44:14.627Z,79.27
2019-01-28T07:46:45.066Z,92.13
2019-01-28T07:49:15.513Z,97.97
2019-01-28T07:51:45.964Z,83.80
2019-01-28T07:54:16.350Z,71.60
2019-01-28T07:56:46.792Z,69.30
2019-01-28T07:59:17.245Z,73.17
2019-01-28T08:01:47.722Z,77.87
2019-01-28T08:04:18.143Z,85.00
2019-01-28T08:06:48.586Z,130.07
2019-01-28T08:09:18.977Z,86.20
2019-01-28T08:11:49.518Z,124.23
2019-01-28T08:14:19.996Z,109.17
2019-01-28T08:16:50.397Z,129.80
2019-01-28T08:19:20.841Z,200.50
2019-01-28T08:21:51.296Z,272.97
2019-01-28T08:24:21.681Z,331.03
2019-01-28T08:26:52.132Z,237.57
2019-01-28T08:29:22.563Z,186.77
2019-01-28T08:31:53.022Z,148.97
2019-01-28T08:34:23.478Z,100.03
2019-01-28T08:36:54.768Z,99.80
2019-01-28T08:39:26.272Z,104.23
2019-01-28T08:41:56.748Z,104.27
2019-01-28T08:44:27.224Z,113.90
2019-01-28T08:46:57.699Z,105.40
2019-01-28T08:49:28.152Z,107.93
2019-01-28T08:51:58.612Z,92.93
2019-01-28T08:54:29.052Z,86.20
2019-01-28T08:56:59.514Z,92.77
2019-01-28T08:59:29.989Z,87.20
2019-01-28T09:02:00.433Z,113.10
2019-01-28T09:04:30.889Z,106.00
2019-01-28T09:07:01.386Z,99.10
2019-01-28T09:09:31.880Z,102.47
2019-01-28T09:12:02.335Z,91.80
2019-01-28T09:14:32.797Z,100.53
2019-01-28T09:17:03.286Z,83.97
2019-01-28T09:19:33.720Z,122.50
2019-01-28T09:22:04.154Z,95.20
2019-01-28T09:24:34.586Z,114.90
2019-01-28T09:27:05.113Z,149.23
2019-01-28T09:29:35.664Z,112.03
2019-01-28T09:32:06.101Z,103.40
2019-01-28T09:34:36.562Z,121.77
2019-01-28T09:37:07.006Z,119.43
2019-01-28T09:39:37.472Z,122.10
2019-01-28T09:42:07.926Z,140.03
2019-01-28T09:44:38.401Z,149.63
2019-01-28T09:47:08.844Z,175.90
2019-01-28T09:49:39.294Z,149.23
2019-01-28T09:52:09.737Z,120.17
2019-01-28T09:54:40.183Z,148.00
2019-01-28T09:57:10.644Z,109.60
2019-01-28T09:59:41.159Z,105.60
2019-01-28T10:02:11.622Z,87.47
2019-01-28T10:04:42.069Z,96.03
2019-01-28T10:07:12.561Z,128.30
2019-01-28T10:09:43.086Z,114.07
2019-01-28T10:12:13.617Z,103.83
2019-01-28T10:14:44.065Z,111.07
2019-01-28T10:17:14.510Z,98.50
2019-01-28T10:19:44.979Z,91.97
2019-01-28T10:22:15.461Z,115.30
2019-01-28T10:24:45.929Z,126.50
2019-01-28T10:27:16.372Z,95.20
2019-01-28T10:29:46.817Z,103.07
2019-01-28T10:32:17.285Z,92.53
2019-01-28T10:34:47.764Z,115.20
2019-01-28T10:37:18.208Z,104.40
2019-01-28T10:39:48.658Z,54.33
2019-01-28T10:42:19.128Z,52.13
2019-01-28T10:44:49.660Z,60.00
2019-01-28T10:47:21.099Z,68.77
2019-01-28T10:49:51.532Z,83.13
2019-01-28T10:52:21.958Z,86.33
2019-01-28T10:54:52.376Z,80.43
2019-01-28T10:57:22.834Z,80.60
2019-01-28T10:59:53.283Z,72.13
2019-01-28T11:02:23.735Z,65.97
2019-01-28T11:04:54.189Z,66.87
2019-01-28T11:07:24.628Z,64.47
2019-01-28T11:09:55.105Z,62.83
2019-01-28T11:12:25.638Z,62.08
2019-01-28T11:14:56.767Z,57.38
2019-01-28T11:17:27.892Z,63.20
2019-01-28T11:19:58.440Z,65.93
2019-01-28T11:22:29.547Z,52.98
2019-01-28T11:25:01.547Z,46.07
2019-01-28T11:27:32.854Z,44.23
2019-01-28T11:30:04.143Z,57.60
2019-01-28T11:32:35.335Z,51.60
2019-01-28T11:35:06.475Z,49.10
2019-01-28T11:37:37.451Z,46.15
2019-01-28T11:40:10.222Z,45.45
2019-01-28T11:42:41.429Z,48.68
2019-01-28T11:45:19.076Z,57.58
2019-01-28T11:47:50.190Z,46.90
2019-01-28T11:50:21.246Z,47.60
2019-01-28T11:52:52.364Z,45.73
2019-01-28T11:55:23.478Z,44.38
2019-01-28T11:57:54.537Z,44.27
2019-01-28T12:00:37.087Z,44.77
2019-01-28T12:03:08.209Z,41.65
2019-01-28T12:05:39.303Z,43.65
2019-01-28T12:08:10.411Z,48.40
2019-01-28T12:10:41.521Z,58.35
2019-01-28T12:13:12.620Z,61.45
2019-01-28T12:15:43.741Z,56.70
2019-01-28T12:18:14.885Z,59.40
2019-01-28T12:20:53.489Z,57.75
2019-01-28T12:23:18.768Z,59.13
2019-01-28T12:25:49.879Z,59.42
2019-01-28T12:28:20.945Z,63.98
2019-01-28T12:30:52.060Z,57.48
2019-01-28T12:33:23.170Z,54.63
2019-01-28T12:35:54.177Z,57.20
2019-01-28T12:38:25.223Z,56.35
2019-01-28T12:40:56.352Z,63.58
2019-01-28T12:43:27.426Z,58.10
2019-01-28T12:45:58.516Z,62.90
2019-01-28T12:48:29.587Z,56.45
2019-01-28T12:51:00.725Z,61.13
2019-01-28T12:53:31.843Z,52.10
2019-01-28T12:56:02.897Z,64.55
2019-01-28T12:58:33.955Z,59.30
2019-01-28T13:01:06.069Z,55.05
2019-01-28T13:03:38.113Z,53.02
2019-01-28T13:06:09.176Z,52.38
2019-01-28T13:08:40.230Z,59.63
2019-01-28T13:11:11.270Z,53.40
2019-01-28T13:13:42.376Z,103.30
2019-01-28T13:16:13.505Z,72.42
2019-01-28T13:18:44.552Z,60.03
2019-01-28T13:21:16.599Z,62.75
2019-01-28T13:23:47.668Z,66.22
2019-01-28T13:26:18.755Z,64.25
2019-01-28T13:28:49.809Z,76.28
2019-01-28T13:31:20.863Z,61.25
2019-01-28T13:33:51.912Z,62.23
2019-01-28T13:36:23.352Z,68.57
2019-01-28T13:38:54.409Z,64.00
2019-01-28T13:41:25.503Z,62.67
2019-01-28T13:43:56.552Z,54.67
2019-01-28T13:46:27.655Z,77.45
2019-01-28T13:48:58.737Z,95.70
2019-01-28T13:51:29.828Z,110.72
2019-01-28T13:54:00.913Z,58.52
2019-01-28T13:56:31.961Z,60.20
2019-01-28T13:59:02.939Z,68.20
2019-01-28T14:01:33.976Z,78.42
2019-01-28T14:04:05.088Z,92.80
2019-01-28T14:06:36.120Z,52.75
2019-01-28T14:09:08.793Z,61.37
2019-01-28T14:11:39.842Z,74.75
2019-01-28T14:14:10.372Z,58.55
2019-01-28T14:16:41.476Z,54.75
2019-01-28T14:19:12.533Z,78.25
2019-01-28T14:21:43.598Z,94.95
2019-01-28T14:24:14.687Z,111.97
2019-01-28T14:26:45.785Z,95.12
2019-01-28T14:29:16.503Z,96.20
2019-01-28T14:31:47.486Z,80.50
2019-01-28T14:34:17.962Z,76.00
2019-01-28T14:36:49.003Z,73.57
2019-01-28T14:39:19.439Z,67.87
2019-01-28T14:41:50.614Z,77.55
2019-01-28T14:44:21.819Z,81.32
2019-01-28T14:46:52.292Z,79.73
2019-01-28T14:49:22.778Z,77.20
2019-01-28T14:51:53.310Z,68.37
2019-01-28T14:54:23.737Z,63.73
2019-01-28T14:56:54.218Z,62.00
2019-01-28T14:59:24.753Z,69.53
2019-01-28T15:01:55.892Z,78.02
2019-01-28T15:04:26.367Z,82.20
2019-01-28T15:06:56.820Z,79.57
2019-01-28T15:09:27.288Z,64.00
2019-01-28T15:11:57.740Z,65.40
2019-01-28T15:14:28.475Z,71.93
2019-01-28T15:16:58.969Z,75.80
2019-01-28T15:19:29.404Z,88.03
2019-01-28T15:21:59.875Z,94.83
2019-01-28T15:24:30.327Z,108.87
2019-01-28T15:27:00.989Z,104.07
2019-01-28T15:29:31.472Z,116.73
2019-01-28T15:32:01.933Z,116.53
2019-01-28T15:34:32.542Z,116.37
2019-01-28T15:37:03.138Z,109.87
2019-01-28T15:39:33.601Z,112.33
2019-01-28T15:42:04.156Z,125.97
2019-01-28T15:44:34.623Z,162.73
2019-01-28T15:47:05.181Z,209.50
2019-01-28T15:49:35.626Z,214.73
2019-01-28T15:52:06.156Z,130.00
2019-01-28T15:54:36.897Z,135.87
2019-01-28T15:57:07.362Z,153.40
2019-01-28T15:59:37.959Z,136.67
2019-01-28T16:02:09.507Z,122.97
2019-01-28T16:04:40.065Z,103.10
2019-01-28T16:07:10.620Z,117.00
2019-01-28T16:09:41.103Z,97.17
2019-01-28T16:12:11.878Z,111.93
2019-01-28T16:14:42.394Z,108.83
2019-01-28T16:17:12.894Z,110.60
2019-01-28T16:19:43.525Z,155.40
2019-01-28T16:22:14.092Z,106.63
2019-01-28T16:24:44.582Z,129.70
2019-01-28T16:27:15.230Z,140.70
2019-01-28T16:29:45.985Z,141.10
2019-01-28T16:32:16.465Z,208.63
2019-01-28T16:34:46.947Z,264.07
2019-01-28T16:37:17.446Z,214.80
2019-01-28T16:39:48.237Z,243.90
2019-01-28T16:42:18.735Z,203.30
2019-01-28T16:44:49.280Z,180.30
2019-01-28T16:47:19.791Z,250.10
2019-01-28T16:49:50.281Z,305.03
2019-01-28T16:52:20.776Z,313.90
2019-01-28T16:54:51.296Z,358.43
2019-01-28T16:57:22.208Z,319.67
2019-01-28T16:59:53.144Z,351.53
2019-01-28T17:02:23.786Z,394.53
2019-01-28T17:04:56.148Z,346.23
2019-01-28T17:07:26.699Z,373.00
2019-01-28T17:09:57.498Z,316.83
2019-01-28T17:12:27.999Z,252.87
2019-01-28T17:14:58.561Z,230.40
2019-01-28T17:17:29.041Z,243.67
2019-01-28T17:19:59.585Z,184.20
2019-01-28T17:22:30.162Z,220.17
2019-01-28T17:25:00.651Z,206.47
2019-01-28T17:27:31.151Z,89.47
2019-01-28T17:30:02.086Z,125.30
2019-01-28T17:32:32.614Z,166.10
2019-01-28T17:35:03.140Z,105.43
2019-01-28T17:37:33.696Z,114.07
2019-01-28T17:40:04.405Z,104.27
2019-01-28T17:42:35.135Z,172.00
2019-01-28T17:45:06.465Z,204.33
2019-01-28T17:47:37.109Z,204.73
2019-01-28T17:50:08.992Z,168.40
2019-01-28T17:52:39.859Z,181.60
2019-01-28T17:55:11.130Z,160.07
2019-01-28T17:57:41.725Z,153.97
2019-01-28T18:00:15.445Z,133.40
2019-01-28T18:02:46.004Z,142.07
2019-01-28T18:05:17.604Z,126.17
2019-01-28T18:07:48.906Z,122.23
2019-01-28T18:10:19.593Z,134.40
2019-01-28T18:12:50.190Z,146.67
2019-01-28T18:15:20.814Z,151.50
2019-01-28T18:17:51.516Z,256.30
2019-01-28T18:20:21.989Z,175.40
2019-01-28T18:22:52.579Z,150.53
2019-01-28T18:25:25.195Z,145.30
2019-01-28T18:27:55.724Z,151.23
2019-01-28T18:30:36.323Z,161.57
2019-01-28T18:33:06.857Z,151.73
2019-01-28T18:35:37.376Z,158.10
2019-01-28T18:38:08.150Z,144.10
2019-01-28T18:40:38.667Z,159.77
2019-01-28T18:43:09.167Z,198.50
2019-01-28T18:45:39.762Z,177.47
2019-01-28T18:48:10.527Z,193.47
2019-01-28T18:50:41.089Z,159.33
2019-01-28T18:53:11.886Z,157.43
2019-01-28T18:55:42.596Z,256.43
2019-01-28T18:58:13.122Z,173.83
2019-01-28T19:00:43.932Z,156.20
2019-01-28T19:03:14.639Z,206.63
2019-01-28T19:05:53.628Z,155.40
2019-01-28T19:08:39.347Z,145.83
2019-01-28T19:11:24.228Z,172.23
2019-01-28T19:14:19.846Z,130.23
2019-01-28T19:17:15.129Z,141.80
2019-01-28T19:20:10.565Z,160.87
2019-01-28T19:22:41.149Z,144.67
2019-01-28T19:25:11.999Z,162.07
2019-01-28T19:27:42.837Z,159.07
2019-01-28T19:30:18.505Z,137.90
2019-01-28T19:32:50.195Z,120.83
2019-01-28T19:35:20.954Z,95.77
2019-01-28T19:37:51.670Z,101.93
2019-01-28T19:40:22.592Z,104.07
2019-01-28T19:42:53.169Z,105.93
2019-01-28T19:45:23.930Z,115.53
2019-01-28T19:47:54.603Z,117.87
2019-01-28T19:50:26.026Z,107.13
2019-01-28T19:52:56.716Z,126.60
2019-01-28T19:55:27.682Z,132.77
2019-01-28T19:57:58.518Z,130.63
2019-01-28T20:00:29.708Z,137.90
2019-01-28T20:03:02.354Z,148.13
2019-01-28T20:05:33.085Z,141.53
2019-01-28T20:08:03.943Z,156.10
2019-01-28T20:10:35.873Z,133.87
2019-01-28T20:13:06.550Z,176.30
2019-01-28T20:15:37.404Z,170.77
2019-01-28T20:18:08.194Z,158.80
2019-01-28T20:20:38.992Z,141.00
2019-01-28T20:23:10.908Z,147.13
2019-01-28T20:25:41.645Z,141.70
2019-01-28T20:28:12.624Z,124.37
2019-01-28T20:30:43.396Z,107.13
2019-01-28T20:33:14.478Z,132.53
2019-01-28T20:35:45.383Z,132.50
2019-01-28T20:38:16.677Z,116.80
2019-01-28T20:40:47.710Z,111.33
2019-01-28T20:43:23.943Z,147.53
2019-01-28T20:45:50.683Z,165.43
2019-01-28T20:48:21.639Z,145.47
2019-01-28T20:50:52.415Z,143.80
2019-01-28T20:53:23.440Z,151.07
2019-01-28T20:55:54.155Z,129.80
2019-01-28T20:58:24.930Z,151.20
2019-01-28T21:00:55.764Z,116.43
2019-01-28T21:03:26.406Z,165.80
2019-01-28T21:05:57.121Z,166.13
2019-01-28T21:08:27.748Z,156.30
2019-01-28T21:10:58.905Z,153.33
2019-01-28T21:13:29.967Z,151.23
2019-01-28T21:16:00.958Z,123.90
2019-01-28T21:18:31.737Z,138.80
2019-01-28T21:21:02.594Z,129.90
2019-01-28T21:23:34.273Z,145.30
2019-01-28T21:26:05.971Z,170.13
2019-01-28T21:28:36.745Z,152.23
2019-01-28T21:31:07.738Z,182.80
2019-01-28T21:33:38.527Z,175.47
2019-01-28T21:36:27.733Z,167.37
2019-01-28T21:38:58.356Z,164.93
2019-01-28T21:41:28.956Z,185.83
2019-01-28T21:43:59.580Z,167.17
2019-01-28T21:46:30.248Z,149.63
2019-01-28T21:49:00.817Z,177.87
2019-01-28T21:51:31.415Z,192.67
2019-01-28T21:54:02.083Z,172.80
2019-01-28T21:56:33.092Z,198.93
2019-01-28T21:59:03.826Z,207.33
2019-01-28T22:01:35.123Z,190.57
2019-01-28T22:04:05.677Z,161.60
2019-01-28T22:06:36.375Z,173.13
2019-01-28T22:09:09.283Z,160.43
2019-01-28T22:11:40.259Z,185.30
2019-01-28T22:14:11.217Z,199.30
2019-01-28T22:16:42.164Z,196.43
2019-01-28T22:19:12.928Z,186.03
2019-01-28T22:21:43.810Z,257.37
2019-01-28T22:24:14.514Z,230.10
2019-01-28T22:26:45.100Z,206.27
2019-01-28T22:29:15.850Z,203.50
2019-01-28T22:31:46.427Z,188.07
2019-01-28T22:34:17.134Z,186.97
2019-01-28T22:36:47.810Z,183.87
2019-01-28T22:39:18.509Z,191.97
2019-01-28T22:41:49.307Z,201.20
2019-01-28T22:44:20.144Z,167.10
2019-01-28T22:46:50.854Z,253.30
2019-01-28T22:49:21.430Z,183.57
2019-01-28T22:51:52.017Z,204.27
2019-01-28T22:54:22.635Z,196.37
2019-01-28T22:56:53.233Z,151.03
2019-01-28T22:59:23.846Z,136.57
2019-01-28T23:01:54.801Z,137.40
2019-01-28T23:04:25.516Z,125.93
2019-01-28T23:06:56.363Z,130.63
2019-01-28T23:09:26.982Z,121.23
2019-01-28T23:11:57.721Z,112.77
2019-01-28T23:14:28.436Z,120.27
2019-01-28T23:16:59.227Z,104.07
2019-01-28T23:19:30.054Z,97.07
2019-01-28T23:22:00.968Z,115.70
2019-01-28T23:24:31.825Z,121.03
2019-01-28T23:27:02.580Z,116.93
2019-01-28T23:29:33.378Z,115.10
2019-01-28T23:32:04.101Z,115.00
2019-01-28T23:34:34.898Z,140.47
2019-01-28T23:37:05.675Z,108.77
2019-01-28T23:39:36.360Z,111.43
2019-01-28T23:42:07.351Z,119.33
2019-01-28T23:44:37.991Z,114.83
2019-01-28T23:47:09.085Z,343.93
2019-01-28T23:49:39.665Z,128.70
2019-01-28T23:52:10.415Z,112.83
2019-01-28T23:54:40.916Z,127.97
2019-01-28T23:57:11.575Z,95.50
2019-01-28T23:59:42.177Z,98.33
